Time;durP1;ratioP1;P1;durP2;ratioP2;P2;SDS_P1;SDS_P2;PMS_P1;PMS_P2;Temp;Humidity;BMP_temperature;BMP_pressure;BME280_temperature;BME280_humidity;BME280_pressure;Samples;Min_cycle;Max_cycle;Signal;HPM_P1;HPM_P2
2021/09/05 00:00:12;;;;;;;5.18;3.10;;;;;;;;;;5117612;28;20382;-65
2021/09/05 00:02:37;;;;;;;6.28;3.80;;;;;;;;;;5117543;28;20028;-66
2021/09/05 00:05:03;;;;;;;3.05;2.50;;;;;;;;;;5117519;28;20477;-66
2021/09/05 00:07:28;;;;;;;4.45;2.40;;;;;;;;;;5117387;28;20141;-66
2021/09/05 00:09:54;;;;;;;3.30;2.60;;;;;;;;;;5117260;28;20011;-66
2021/09/05 00:12:19;;;;;;;4.78;2.67;;;;;;;;;;5117181;28;20493;-66
2021/09/05 00:14:45;;;;;;;3.45;2.75;;;;;;;;;;5117320;28;20050;-65
2021/09/05 00:17:10;;;;;;;5.20;3.10;;;;;;;;;;5117213;28;20036;-66
2021/09/05 00:19:36;;;;;;;4.82;2.88;;;;;;;;;;5117153;28;20027;-66
2021/09/05 00:22:01;;;;;;;3.95;2.72;;;;;;;;;;5117035;28;20043;-66
2021/09/05 00:24:27;;;;;;;3.75;2.90;;;;;;;;;;5117180;28;20032;-66
2021/09/05 00:26:52;;;;;;;2.80;2.60;;;;;;;;;;5117041;28;20048;-65
2021/09/05 00:29:18;;;;;;;3.17;2.58;;;;;;;;;;5117131;28;20026;-66
2021/09/05 00:31:43;;;;;;;4.25;2.88;;;;;;;;;;5098695;28;20416;-66
2021/09/05 00:34:09;;;;;;;3.72;3.20;;;;;;;;;;5116872;28;20022;-66
2021/09/05 00:36:36;;;;;;;3.47;2.63;;;;;;;;;;5116834;28;20035;-65
2021/09/05 00:39:01;;;;;;;3.00;2.45;;;;;;;;;;5116810;28;20110;-66
2021/09/05 00:41:27;;;;;;;2.83;2.63;;;;;;;;;;5098464;28;20221;-65
2021/09/05 00:43:59;;;;;;;3.67;2.58;;;;;;;;;;5116756;28;20026;-66
2021/09/05 00:46:24;;;;;;;3.63;2.65;;;;;;;;;;5116540;28;20485;-65
2021/09/05 00:48:50;;;;;;;3.20;2.70;;;;;;;;;;5116663;28;20015;-66
2021/09/05 00:51:16;;;;;;;3.53;2.60;;;;;;;;;;5097983;28;20366;-66
2021/09/05 00:53:41;;;;;;;2.78;2.42;;;;;;;;;;5116684;28;20020;-66
2021/09/05 00:56:08;;;;;;;3.17;2.50;;;;;;;;;;5098468;28;20028;-66
2021/09/05 00:58:36;;;;;;;3.40;3.10;;;;;;;;;;5116424;28;20012;-66
2021/09/05 01:01:01;;;;;;;3.85;2.47;;;;;;;;;;5116457;28;20036;-66
2021/09/05 01:03:27;;;;;;;2.60;2.40;;;;;;;;;;5098125;28;20134;-66
2021/09/05 01:05:54;;;;;;;5.50;2.63;;;;;;;;;;5116329;28;20027;-66
2021/09/05 01:08:20;;;;;;;3.45;2.67;;;;;;;;;;5116331;28;20012;-66
2021/09/05 01:10:46;;;;;;;3.72;2.80;;;;;;;;;;5116275;28;20106;-66
2021/09/05 01:13:12;;;;;;;2.75;2.55;;;;;;;;;;5116118;28;20020;-66
2021/09/05 01:15:38;;;;;;;3.70;2.58;;;;;;;;;;5116070;28;20115;-66
2021/09/05 01:18:08;;;;;;;3.63;2.80;;;;;;;;;;5116132;28;20015;-66
2021/09/05 01:20:52;;;;;;;2.88;2.50;;;;;;;;;;5116128;28;20097;-66
2021/09/05 01:23:38;;;;;;;5.90;2.67;;;;;;;;;;5115496;28;20036;-66
2021/09/05 01:26:18;;;;;;;3.70;2.88;;;;;;;;;;5097715;28;20039;-66
2021/09/05 01:29:22;;;;;;;3.72;2.72;;;;;;;;;;5115914;28;20028;-66
2021/09/05 01:32:07;;;;;;;4.93;2.83;;;;;;;;;;5114329;28;20042;-66
2021/09/05 01:34:57;;;;;;;3.65;2.75;;;;;;;;;;5109585;28;20118;-66
2021/09/05 01:37:51;;;;;;;4.45;2.33;;;;;;;;;;5042708;28;20132;-66
2021/09/05 01:40:37;;;;;;;5.07;2.72;;;;;;;;;;5114868;28;20067;-66
2021/09/05 01:43:34;;;;;;;3.22;2.63;;;;;;;;;;5115536;28;20039;-66
2021/09/05 01:46:18;;;;;;;8.18;2.53;;;;;;;;;;5115862;28;20038;-66
2021/09/05 01:49:07;;;;;;;3.55;2.95;;;;;;;;;;5086034;28;20512;-66
2021/09/05 01:51:53;;;;;;;3.58;2.63;;;;;;;;;;5073145;28;20122;-65
2021/09/05 01:54:50;;;;;;;3.47;2.63;;;;;;;;;;5080717;28;20115;-66
2021/09/05 01:57:49;;;;;;;3.13;2.53;;;;;;;;;;5115633;28;20027;-66
2021/09/05 02:00:33;;;;;;;4.38;3.00;;;;;;;;;;5115786;28;20038;-66
2021/09/05 02:03:12;;;;;;;4.47;2.90;;;;;;;;;;5097177;28;20079;-66
2021/09/05 02:05:53;;;;;;;4.13;2.83;;;;;;;;;;5115367;28;20058;-66
2021/09/05 02:08:37;;;;;;;2.85;2.58;;;;;;;;;;5096562;28;20119;-66
2021/09/05 02:11:05;;;;;;;2.60;2.40;;;;;;;;;;5115289;28;20034;-66
2021/09/05 02:13:38;;;;;;;2.97;2.78;;;;;;;;;;5115142;28;20099;-66
2021/09/05 02:16:31;;;;;;;5.13;2.60;;;;;;;;;;5115048;28;20039;-66
2021/09/05 02:19:27;;;;;;;4.75;2.70;;;;;;;;;;5090865;28;20128;-66
2021/09/05 02:22:31;;;;;;;4.32;3.05;;;;;;;;;;5114799;28;20063;-66
2021/09/05 02:25:14;;;;;;;3.22;2.55;;;;;;;;;;5096683;28;20024;-66
2021/09/05 02:28:06;;;;;;;3.55;2.85;;;;;;;;;;5111314;28;20505;-66
2021/09/05 02:31:10;;;;;;;3.80;2.80;;;;;;;;;;5090717;28;20036;-66
2021/09/05 02:34:02;;;;;;;4.60;2.63;;;;;;;;;;5082739;28;20036;-66
2021/09/05 02:36:51;;;;;;;3.15;2.65;;;;;;;;;;5114656;28;20023;-66
2021/09/05 02:39:17;;;;;;;6.13;3.10;;;;;;;;;;5114470;28;20389;-67
2021/09/05 02:42:08;;;;;;;3.83;3.15;;;;;;;;;;5110729;28;20110;-66
2021/09/05 02:44:57;;;;;;;2.85;2.65;;;;;;;;;;5084698;28;20032;-66
2021/09/05 02:47:48;;;;;;;5.07;2.60;;;;;;;;;;5095046;28;20035;-66
2021/09/05 02:50:32;;;;;;;4.03;2.83;;;;;;;;;;5114884;28;20697;-66
2021/09/05 02:53:30;;;;;;;4.47;2.78;;;;;;;;;;5068212;28;20039;-66
2021/09/05 02:56:13;;;;;;;5.07;3.03;;;;;;;;;;5114630;28;20451;-66
2021/09/05 02:59:17;;;;;;;3.15;2.85;;;;;;;;;;5031804;28;20033;-66
2021/09/05 03:02:01;;;;;;;3.40;2.90;;;;;;;;;;5032058;28;20045;-66
2021/09/05 03:04:52;;;;;;;5.72;3.63;;;;;;;;;;5094335;28;20525;-66
2021/09/05 03:07:36;;;;;;;5.45;3.45;;;;;;;;;;5114287;28;20080;-66
2021/09/05 03:10:25;;;;;;;6.72;4.05;;;;;;;;;;5105428;28;20023;-66
2021/09/05 03:13:25;;;;;;;;;;;;;;;;;;5051756;28;20025;-66
2021/09/05 03:16:17;;;;;;;2.88;2.63;;;;;;;;;;5110975;28;19907;-66
2021/09/05 03:19:02;;;;;;;3.75;2.85;;;;;;;;;;5071740;28;20047;-66
2021/09/05 03:21:57;;;;;;;5.10;2.90;;;;;;;;;;5112726;28;20044;-66
2021/09/05 03:24:39;;;;;;;4.05;2.80;;;;;;;;;;5113849;28;20027;-66
2021/09/05 03:27:13;;;;;;;5.57;2.67;;;;;;;;;;5113723;28;20406;-66
2021/09/05 03:30:11;;;;;;;5.63;2.90;;;;;;;;;;5079008;28;20031;-66
2021/09/05 03:32:55;;;;;;;3.90;2.70;;;;;;;;;;5113986;28;20038;-66
2021/09/05 03:35:52;;;;;;;3.35;2.70;;;;;;;;;;5096083;28;20416;-66
2021/09/05 03:38:36;;;;;;;3.47;2.72;;;;;;;;;;5113513;28;20093;-66
2021/09/05 03:41:24;;;;;;;4.43;2.85;;;;;;;;;;5074854;28;20039;-66
2021/09/05 03:44:19;;;;;;;3.78;2.70;;;;;;;;;;5099550;28;20047;-66
2021/09/05 03:47:07;;;;;;;4.10;2.75;;;;;;;;;;5111074;28;20077;-66
2021/09/05 03:49:58;;;;;;;3.08;2.63;;;;;;;;;;5109250;28;20074;-66
2021/09/05 03:52:25;;;;;;;3.67;2.75;;;;;;;;;;5095204;28;20493;-66
2021/09/05 03:54:52;;;;;;;2.85;2.22;;;;;;;;;;5095307;28;20358;-66
2021/09/05 03:57:19;;;;;;;4.40;2.63;;;;;;;;;;5095183;28;20035;-66
2021/09/05 03:59:45;;;;;;;3.08;2.45;;;;;;;;;;5113352;28;20024;-66
2021/09/05 04:02:16;;;;;;;2.60;2.40;;;;;;;;;;5095096;28;20028;-66
2021/09/05 04:04:41;;;;;;;3.25;2.35;;;;;;;;;;5095140;28;20046;-66
2021/09/05 04:07:10;;;;;;;2.88;2.28;;;;;;;;;;5113220;28;20027;-66
2021/09/05 04:12:20;;;;;;;3.15;2.63;;;;;;;;;;5113506;28;20020;-66
2021/09/05 04:14:45;;;;;;;3.35;2.80;;;;;;;;;;5113298;28;20016;-66
2021/09/05 04:17:11;;;;;;;2.92;2.72;;;;;;;;;;5113247;28;20039;-66
2021/09/05 04:19:36;;;;;;;3.55;2.35;;;;;;;;;;5113214;28;20045;-66
2021/09/05 04:22:02;;;;;;;3.55;2.70;;;;;;;;;;5113085;28;20035;-66
2021/09/05 04:24:28;;;;;;;3.83;2.40;;;;;;;;;;5113318;28;20469;-66
2021/09/05 04:26:53;;;;;;;4.55;2.40;;;;;;;;;;5113144;28;20038;-66
2021/09/05 04:29:19;;;;;;;4.63;2.40;;;;;;;;;;5094825;28;20016;-66
2021/09/05 04:31:44;;;;;;;6.20;2.50;;;;;;;;;;5113451;28;20023;-66
2021/09/05 04:34:09;;;;;;;2.58;2.35;;;;;;;;;;5117091;28;20020;-66
2021/09/05 04:36:35;;;;;;;3.60;2.28;;;;;;;;;;5117024;28;20035;-66
2021/09/05 04:39:00;;;;;;;3.13;2.35;;;;;;;;;;5116997;28;20027;-66
2021/09/05 04:41:26;;;;;;;3.15;2.25;;;;;;;;;;5098716;28;20473;-66
2021/09/05 04:43:51;;;;;;;2.78;2.00;;;;;;;;;;5116852;28;20015;-66
2021/09/05 04:46:17;;;;;;;3.13;2.30;;;;;;;;;;5116653;28;20027;-66
2021/09/05 04:48:42;;;;;;;3.83;2.38;;;;;;;;;;5116608;28;20012;-66
2021/09/05 04:51:08;;;;;;;2.92;2.63;;;;;;;;;;5116631;28;20027;-65
2021/09/05 04:53:33;;;;;;;4.53;2.10;;;;;;;;;;5098312;28;20020;-66
2021/09/05 04:55:59;;;;;;;2.47;2.28;;;;;;;;;;5116530;28;20024;-66
2021/09/05 04:58:24;;;;;;;3.40;2.40;;;;;;;;;;5116513;28;20015;-66
2021/09/05 05:00:49;;;;;;;3.17;2.50;;;;;;;;;;5116449;28;20031;-66
2021/09/05 05:03:18;;;;;;;2.42;1.95;;;;;;;;;;5116385;28;20153;-66
2021/09/05 05:05:43;;;;;;;2.42;2.22;;;;;;;;;;5116322;28;20370;-66
2021/09/05 05:08:09;;;;;;;3.58;2.28;;;;;;;;;;5116227;28;20065;-66
2021/09/05 05:10:34;;;;;;;2.00;1.80;;;;;;;;;;5116303;28;20036;-66
2021/09/05 05:13:00;;;;;;;3.65;2.45;;;;;;;;;;5116101;28;20153;-65
2021/09/05 05:15:25;;;;;;;2.50;2.17;;;;;;;;;;5116174;28;20016;-65
2021/09/05 05:17:50;;;;;;;2.63;2.13;;;;;;;;;;5116297;28;20381;-66
2021/09/05 05:20:17;;;;;;;3.08;2.40;;;;;;;;;;5115968;28;20367;-66
2021/09/05 05:22:43;;;;;;;2.97;2.30;;;;;;;;;;5116207;28;20038;-66
2021/09/05 05:25:09;;;;;;;6.57;2.42;;;;;;;;;;5115955;28;20028;-65
2021/09/05 05:27:34;;;;;;;3.50;2.67;;;;;;;;;;5115304;28;20031;-66
2021/09/05 05:30:00;;;;;;;3.08;2.15;;;;;;;;;;5115921;28;20499;-66
2021/09/05 05:32:25;;;;;;;2.85;2.03;;;;;;;;;;5115873;28;20465;-66
2021/09/05 05:34:51;;;;;;;3.42;2.20;;;;;;;;;;5115962;28;20019;-66
2021/09/05 05:37:16;;;;;;;2.38;2.13;;;;;;;;;;5115775;28;20431;-66
2021/09/05 05:39:42;;;;;;;2.13;1.92;;;;;;;;;;5115621;28;20359;-66
2021/09/05 05:42:07;;;;;;;2.33;2.13;;;;;;;;;;5115620;28;20066;-65
2021/09/05 05:44:32;;;;;;;3.22;2.60;;;;;;;;;;5114773;28;20043;-65
2021/09/05 05:46:58;;;;;;;3.75;2.10;;;;;;;;;;5115528;28;20022;-66
2021/09/05 05:49:23;;;;;;;2.38;2.17;;;;;;;;;;5115482;28;20031;-67
2021/09/05 05:51:49;;;;;;;2.40;2.20;;;;;;;;;;5115431;28;20063;-66
2021/09/05 05:54:15;;;;;;;2.70;1.85;;;;;;;;;;5115369;28;20465;-65
2021/09/05 05:56:42;;;;;;;2.50;1.70;;;;;;;;;;5115312;28;20020;-65
2021/09/05 05:59:08;;;;;;;1.90;1.77;;;;;;;;;;5115455;28;20031;-65
2021/09/05 06:01:33;;;;;;;3.28;1.90;;;;;;;;;;5115391;28;20482;-66
2021/09/05 06:03:58;;;;;;;2.50;2.00;;;;;;;;;;5115343;28;20509;-66
2021/09/05 06:06:24;;;;;;;3.47;2.10;;;;;;;;;;5115096;28;20051;-66
2021/09/05 06:08:49;;;;;;;4.03;1.98;;;;;;;;;;5115248;28;20024;-65
2021/09/05 06:11:16;;;;;;;3.13;2.28;;;;;;;;;;5115172;28;20023;-65
2021/09/05 06:13:41;;;;;;;3.63;1.98;;;;;;;;;;5115136;28;20027;-66
2021/09/05 06:16:07;;;;;;;2.45;2.20;;;;;;;;;;5114914;28;20394;-66
2021/09/05 06:18:32;;;;;;;3.38;2.00;;;;;;;;;;5114885;28;20435;-66
2021/09/05 06:20:58;;;;;;;1.83;1.73;;;;;;;;;;5114244;28;20032;-65
2021/09/05 06:23:23;;;;;;;3.72;1.90;;;;;;;;;;5114905;28;20057;-66
2021/09/05 06:25:49;;;;;;;2.00;1.80;;;;;;;;;;5114749;28;20108;-66
2021/09/05 06:28:14;;;;;;;3.58;1.90;;;;;;;;;;5096287;28;20036;-66
2021/09/05 06:30:40;;;;;;;2.03;1.90;;;;;;;;;;5114644;28;20023;-66
2021/09/05 06:33:05;;;;;;;3.25;1.95;;;;;;;;;;5114706;28;20028;-66
2021/09/05 06:35:30;;;;;;;3.00;1.88;;;;;;;;;;5114645;28;20026;-66
2021/09/05 06:37:56;;;;;;;2.42;1.92;;;;;;;;;;5114662;28;20101;-66
2021/09/05 06:40:21;;;;;;;2.10;1.70;;;;;;;;;;5114674;28;20023;-66
2021/09/05 06:42:47;;;;;;;1.77;1.50;;;;;;;;;;5114535;28;20470;-66
2021/09/05 06:45:12;;;;;;;2.05;1.60;;;;;;;;;;5114529;28;20058;-66
2021/09/05 06:47:38;;;;;;;1.90;1.50;;;;;;;;;;5096288;28;20032;-66
2021/09/05 06:50:04;;;;;;;2.47;1.55;;;;;;;;;;5096172;28;20015;-66
2021/09/05 06:52:29;;;;;;;2.30;1.30;;;;;;;;;;5114314;28;20074;-66
2021/09/05 06:54:56;;;;;;;1.90;1.33;;;;;;;;;;5114204;28;20019;-66
2021/09/05 06:57:21;;;;;;;2.50;1.20;;;;;;;;;;5114272;28;20031;-66
2021/09/05 06:59:47;;;;;;;5.22;1.38;;;;;;;;;;5114166;28;20496;-66
2021/09/05 07:02:17;;;;;;;2.58;1.38;;;;;;;;;;5114071;28;20126;-67
2021/09/05 07:04:42;;;;;;;1.38;1.27;;;;;;;;;;5114234;28;20039;-66
2021/09/05 07:07:07;;;;;;;2.75;1.00;;;;;;;;;;5114052;28;20023;-66
2021/09/05 07:09:33;;;;;;;1.67;1.25;;;;;;;;;;5113921;28;20496;-66
2021/09/05 07:11:59;;;;;;;1.38;1.27;;;;;;;;;;5095746;28;20020;-66
2021/09/05 07:14:24;;;;;;;1.65;1.08;;;;;;;;;;5113555;28;20028;-66
2021/09/05 07:16:50;;;;;;;1.30;1.02;;;;;;;;;;5113973;28;20027;-66
2021/09/05 07:19:15;;;;;;;2.13;1.02;;;;;;;;;;5113898;28;20039;-66
2021/09/05 07:21:41;;;;;;;1.23;1.10;;;;;;;;;;5113387;28;20092;-66
2021/09/05 07:24:06;;;;;;;2.08;1.02;;;;;;;;;;5113734;28;20031;-67
2021/09/05 07:26:31;;;;;;;1.73;1.00;;;;;;;;;;5113615;28;20019;-66
2021/09/05 07:28:57;;;;;;;1.48;0.98;;;;;;;;;;5113765;28;20076;-66
2021/09/05 07:31:23;;;;;;;2.03;1.25;;;;;;;;;;5113690;28;20410;-66
2021/09/05 07:33:48;;;;;;;1.27;0.90;;;;;;;;;;5113626;28;20023;-66
2021/09/05 07:36:14;;;;;;;1.20;1.10;;;;;;;;;;5113635;28;20458;-66
2021/09/05 07:38:39;;;;;;;1.50;1.00;;;;;;;;;;5113555;28;20115;-66
2021/09/05 07:41:05;;;;;;;1.45;1.20;;;;;;;;;;5113503;28;20374;-66
2021/09/05 07:43:30;;;;;;;1.08;0.80;;;;;;;;;;5113578;28;20496;-66
2021/09/05 07:45:56;;;;;;;1.33;0.98;;;;;;;;;;5113503;28;20465;-66
2021/09/05 07:48:21;;;;;;;1.10;1.00;;;;;;;;;;5113605;28;20019;-66
2021/09/05 07:50:46;;;;;;;2.15;1.65;;;;;;;;;;5113490;28;20016;-66
2021/09/05 07:53:12;;;;;;;1.65;1.40;;;;;;;;;;5113391;28;20182;-66
2021/09/05 07:55:37;;;;;;;1.40;0.98;;;;;;;;;;5113425;28;20088;-66
2021/09/05 07:58:03;;;;;;;1.05;0.90;;;;;;;;;;5113396;28;20028;-66
2021/09/05 08:00:28;;;;;;;1.75;0.85;;;;;;;;;;5113488;28;20529;-66
2021/09/05 08:02:54;;;;;;;1.30;1.20;;;;;;;;;;5113361;28;20032;-66
2021/09/05 08:05:19;;;;;;;1.27;1.10;;;;;;;;;;5113281;28;20028;-66
2021/09/05 08:07:45;;;;;;;1.70;1.13;;;;;;;;;;5115821;28;20116;-66
2021/09/05 08:10:10;;;;;;;1.50;1.30;;;;;;;;;;5099210;28;20103;-66
2021/09/05 08:12:36;;;;;;;1.52;1.20;;;;;;;;;;5117396;28;20031;-66
2021/09/05 08:15:01;;;;;;;1.50;1.00;;;;;;;;;;5117460;28;20023;-66
2021/09/05 08:17:27;;;;;;;1.50;1.08;;;;;;;;;;5117235;28;20027;-66
2021/09/05 08:19:52;;;;;;;1.52;1.25;;;;;;;;;;5117338;28;20366;-66
2021/09/05 08:22:18;;;;;;;1.17;1.05;;;;;;;;;;5117109;28;20048;-66
2021/09/05 08:24:44;;;;;;;1.20;1.10;;;;;;;;;;5117280;28;20035;-66
2021/09/05 08:27:09;;;;;;;2.45;1.00;;;;;;;;;;5117335;28;20036;-66
2021/09/05 08:29:35;;;;;;;4.50;1.10;;;;;;;;;;5117106;28;20038;-66
2021/09/05 08:32:01;;;;;;;1.90;1.20;;;;;;;;;;5098688;28;20068;-66
2021/09/05 08:34:27;;;;;;;0.93;0.93;;;;;;;;;;5116982;28;20007;-66
2021/09/05 08:36:53;;;;;;;1.48;0.93;;;;;;;;;;5117058;28;20480;-66
2021/09/05 08:39:18;;;;;;;1.63;0.98;;;;;;;;;;5116733;28;20027;-66
2021/09/05 08:41:44;;;;;;;1.17;1.00;;;;;;;;;;5116915;28;20023;-66
2021/09/05 08:44:09;;;;;;;1.60;1.00;;;;;;;;;;5116909;28;20113;-66
2021/09/05 08:46:37;;;;;;;1.10;1.00;;;;;;;;;;5116747;28;20081;-66
2021/09/05 08:49:03;;;;;;;1.55;1.20;;;;;;;;;;5116783;28;20019;-66
2021/09/05 08:51:28;;;;;;;1.20;1.10;;;;;;;;;;5116642;28;20416;-66
2021/09/05 08:53:54;;;;;;;1.17;1.08;;;;;;;;;;5116593;28;20050;-66
2021/09/05 08:56:19;;;;;;;2.08;1.10;;;;;;;;;;5116551;28;20023;-66
2021/09/05 08:58:45;;;;;;;1.15;1.02;;;;;;;;;;5116502;28;20068;-66
2021/09/05 09:01:17;;;;;;;0.90;0.90;;;;;;;;;;5116437;28;20081;-66
2021/09/05 09:03:43;;;;;;;0.80;0.80;;;;;;;;;;5116449;28;20031;-66
2021/09/05 09:06:08;;;;;;;1.23;1.08;;;;;;;;;;5116191;28;20016;-66
2021/09/05 09:08:33;;;;;;;3.45;1.10;;;;;;;;;;5116261;28;20032;-66
2021/09/05 09:11:03;;;;;;;1.10;1.00;;;;;;;;;;5116416;28;20027;-66
2021/09/05 09:13:37;;;;;;;1.45;1.20;;;;;;;;;;5116426;28;20381;-66
2021/09/05 09:16:08;;;;;;;2.80;1.05;;;;;;;;;;5116350;28;20485;-66
2021/09/05 09:18:34;;;;;;;2.05;1.05;;;;;;;;;;5114743;28;20366;-66
2021/09/05 09:21:00;;;;;;;0.80;0.80;;;;;;;;;;5115893;28;20085;-67
2021/09/05 09:23:27;;;;;;;1.10;0.98;;;;;;;;;;5116066;28;20027;-66
2021/09/05 09:25:52;;;;;;;2.05;1.20;;;;;;;;;;5116130;28;20034;-66
2021/09/05 09:28:21;;;;;;;1.20;1.10;;;;;;;;;;5115848;28;20024;-66
2021/09/05 09:30:47;;;;;;;1.48;1.00;;;;;;;;;;5116046;28;20081;-66
2021/09/05 09:33:18;;;;;;;1.33;1.20;;;;;;;;;;5115968;28;20115;-66
2021/09/05 09:35:48;;;;;;;2.70;1.20;;;;;;;;;;5115804;28;20034;-66
2021/09/05 09:38:13;;;;;;;1.23;1.00;;;;;;;;;;5115775;28;20040;-66
2021/09/05 09:40:39;;;;;;;1.45;1.35;;;;;;;;;;5115656;28;20484;-66
2021/09/05 09:43:14;;;;;;;1.98;1.00;;;;;;;;;;5115779;28;20031;-66
2021/09/05 09:45:39;;;;;;;0.82;0.82;;;;;;;;;;5115740;28;20031;-66
2021/09/05 09:48:07;;;;;;;1.02;0.93;;;;;;;;;;5115524;28;20387;-66
2021/09/05 09:50:40;;;;;;;1.10;0.82;;;;;;;;;;5115761;28;20043;-66
2021/09/05 09:53:06;;;;;;;0.60;0.60;;;;;;;;;;5115639;28;20031;-66
2021/09/05 09:55:32;;;;;;;1.30;0.90;;;;;;;;;;5115436;28;20019;-66
2021/09/05 09:57:57;;;;;;;1.13;0.88;;;;;;;;;;5114950;28;20031;-66
2021/09/05 10:00:22;;;;;;;1.33;0.80;;;;;;;;;;5115696;28;20024;-66
2021/09/05 10:02:48;;;;;;;1.27;0.80;;;;;;;;;;5115354;28;20078;-66
2021/09/05 10:05:14;;;;;;;0.77;0.77;;;;;;;;;;5096904;28;20015;-66
2021/09/05 10:07:41;;;;;;;0.80;0.80;;;;;;;;;;5115165;28;20452;-66
2021/09/05 10:10:08;;;;;;;2.65;1.02;;;;;;;;;;5115358;28;20385;-66
2021/09/05 10:12:34;;;;;;;1.67;0.90;;;;;;;;;;5115159;28;20444;-66
2021/09/05 10:15:00;;;;;;;1.30;0.77;;;;;;;;;;5115219;28;20023;-66
2021/09/05 10:17:26;;;;;;;0.90;0.90;;;;;;;;;;5115092;28;20024;-66
2021/09/05 10:19:52;;;;;;;0.70;0.70;;;;;;;;;;5114984;28;20015;-66
2021/09/05 10:22:19;;;;;;;1.65;1.10;;;;;;;;;;5114650;28;20126;-66
2021/09/05 10:24:48;;;;;;;2.17;1.00;;;;;;;;;;5096791;28;20172;-66
2021/09/05 10:27:14;;;;;;;0.70;0.70;;;;;;;;;;5096506;28;20059;-66
2021/09/05 10:29:58;;;;;;;0.98;0.70;;;;;;;;;;5114281;28;20425;-66
2021/09/05 10:32:40;;;;;;;0.80;0.80;;;;;;;;;;5114737;28;20028;-66
2021/09/05 10:35:25;;;;;;;0.63;0.63;;;;;;;;;;5114873;28;20035;-66
2021/09/05 10:38:28;;;;;;;0.73;0.73;;;;;;;;;;5114638;28;20027;-66
2021/09/05 10:40:58;;;;;;;1.92;1.08;;;;;;;;;;5114587;28;20031;-66
2021/09/05 10:43:43;;;;;;;1.10;1.00;;;;;;;;;;5114782;28;20455;-66
2021/09/05 10:46:09;;;;;;;1.10;0.90;;;;;;;;;;5114292;28;20035;-66
2021/09/05 10:48:34;;;;;;;1.35;0.80;;;;;;;;;;5114345;28;20016;-66
2021/09/05 10:51:12;;;;;;;1.10;0.93;;;;;;;;;;5114398;28;20023;-66
2021/09/05 10:53:48;;;;;;;0.90;0.88;;;;;;;;;;5114058;28;20024;-66
2021/09/05 10:56:15;;;;;;;0.98;0.98;;;;;;;;;;5096198;28;20375;-66
2021/09/05 10:58:41;;;;;;;2.70;0.70;;;;;;;;;;5114352;28;20157;-66
2021/09/05 11:01:09;;;;;;;0.80;0.80;;;;;;;;;;5114091;28;20031;-66
2021/09/05 11:03:55;;;;;;;0.90;0.90;;;;;;;;;;5114133;28;20011;-66
2021/09/05 11:06:33;;;;;;;1.23;0.90;;;;;;;;;;5113892;28;20461;-66
2021/09/05 11:09:17;;;;;;;0.82;0.82;;;;;;;;;;5114108;28;20019;-66
2021/09/05 11:11:52;;;;;;;0.90;0.70;;;;;;;;;;5113816;28;20101;-66
2021/09/05 11:14:17;;;;;;;1.35;0.70;;;;;;;;;;5113938;28;20130;-66
2021/09/05 11:16:42;;;;;;;1.85;0.90;;;;;;;;;;5113902;28;20524;-66
2021/09/05 11:19:08;;;;;;;1.05;0.80;;;;;;;;;;5113959;28;20031;-66
2021/09/05 11:21:35;;;;;;;1.17;0.90;;;;;;;;;;5113442;28;20046;-66
2021/09/05 11:24:01;;;;;;;0.90;0.90;;;;;;;;;;5095626;28;20028;-66
2021/09/05 11:26:29;;;;;;;1.23;0.90;;;;;;;;;;5113828;28;20447;-66
2021/09/05 11:28:55;;;;;;;0.98;0.98;;;;;;;;;;5113859;28;20028;-66
2021/09/05 11:31:20;;;;;;;1.45;1.00;;;;;;;;;;5095719;28;20012;-66
2021/09/05 11:33:47;;;;;;;2.17;1.05;;;;;;;;;;5113804;28;20027;-66
2021/09/05 11:36:14;;;;;;;0.80;0.80;;;;;;;;;;5113667;28;20016;-66
2021/09/05 11:38:41;;;;;;;0.80;0.80;;;;;;;;;;5113567;28;20027;-66
2021/09/05 11:41:07;;;;;;;0.90;0.90;;;;;;;;;;5113082;28;20377;-66
2021/09/05 11:43:36;;;;;;;0.85;0.85;;;;;;;;;;5113578;28;20031;-66
2021/09/05 11:46:09;;;;;;;1.20;1.08;;;;;;;;;;5095557;28;20554;-66
2021/09/05 11:48:37;;;;;;;1.73;1.00;;;;;;;;;;5113495;28;20036;-66
2021/09/05 11:51:03;;;;;;;0.80;0.80;;;;;;;;;;5113704;28;20030;-66
2021/09/05 11:53:30;;;;;;;1.33;1.00;;;;;;;;;;5113532;28;20110;-66
2021/09/05 11:55:58;;;;;;;1.75;0.90;;;;;;;;;;5113469;28;20050;-65
2021/09/05 11:58:24;;;;;;;1.00;1.00;;;;;;;;;;5113403;28;20061;-66
2021/09/05 12:00:53;;;;;;;2.40;0.95;;;;;;;;;;5113571;28;20012;-66
2021/09/05 12:03:22;;;;;;;1.73;1.00;;;;;;;;;;5113609;28;20371;-66
2021/09/05 12:05:52;;;;;;;0.70;0.70;;;;;;;;;;5113512;28;20024;-66
2021/09/05 12:08:17;;;;;;;0.95;0.90;;;;;;;;;;5113444;28;20111;-66
2021/09/05 12:10:46;;;;;;;1.52;0.90;;;;;;;;;;5113349;28;20107;-66
2021/09/05 12:13:12;;;;;;;0.80;0.80;;;;;;;;;;5113401;28;20050;-66
2021/09/05 12:15:45;;;;;;;0.70;0.70;;;;;;;;;;5095331;28;20410;-66
2021/09/05 12:18:16;;;;;;;0.73;0.73;;;;;;;;;;5113322;28;20047;-65
2021/09/05 12:20:43;;;;;;;1.98;0.70;;;;;;;;;;5112811;28;20039;-66
2021/09/05 12:23:25;;;;;;;0.80;0.80;;;;;;;;;;5113407;28;20031;-66
2021/09/05 12:25:52;;;;;;;2.85;1.10;;;;;;;;;;5113391;28;20034;-66
2021/09/05 12:28:23;;;;;;;1.48;0.88;;;;;;;;;;5113100;28;20038;-66
2021/09/05 12:30:53;;;;;;;1.02;0.93;;;;;;;;;;5113305;28;20367;-66
2021/09/05 12:33:31;;;;;;;0.80;0.80;;;;;;;;;;5113124;28;20031;-65
2021/09/05 12:36:08;;;;;;;1.63;0.80;;;;;;;;;;5113227;28;20027;-66
2021/09/05 12:38:35;;;;;;;0.70;0.70;;;;;;;;;;5113193;28;20035;-66
2021/09/05 12:41:04;;;;;;;1.73;0.90;;;;;;;;;;5112950;28;20028;-66
2021/09/05 12:43:49;;;;;;;2.10;0.98;;;;;;;;;;5112708;28;20027;-66
2021/09/05 12:46:17;;;;;;;1.25;0.90;;;;;;;;;;5112999;28;20047;-66
2021/09/05 12:48:47;;;;;;;0.70;0.65;;;;;;;;;;5113043;28;20024;-65
2021/09/05 12:51:19;;;;;;;0.90;0.90;;;;;;;;;;5113028;28;20069;-65
2021/09/05 12:53:55;;;;;;;1.10;0.88;;;;;;;;;;5115270;28;20016;-66
2021/09/05 12:56:22;;;;;;;1.95;1.40;;;;;;;;;;5116618;28;20052;-66
2021/09/05 12:58:47;;;;;;;0.70;0.70;;;;;;;;;;5116495;28;20068;-66
2021/09/05 13:01:39;;;;;;;1.13;1.02;;;;;;;;;;5116648;28;20117;-66
2021/09/05 13:04:09;;;;;;;0.90;0.70;;;;;;;;;;5114256;28;20088;-66
2021/09/05 13:06:35;;;;;;;1.30;0.93;;;;;;;;;;5116256;28;20031;-66
2021/09/05 13:09:01;;;;;;;0.90;0.90;;;;;;;;;;5116339;28;20422;-66
2021/09/05 13:11:29;;;;;;;1.88;0.90;;;;;;;;;;5116327;28;20047;-66
2021/09/05 13:13:55;;;;;;;1.10;1.00;;;;;;;;;;5116321;28;20022;-66
2021/09/05 13:16:21;;;;;;;2.33;0.90;;;;;;;;;;5116340;28;20042;-66
2021/09/05 13:18:47;;;;;;;1.00;0.82;;;;;;;;;;5116173;28;20039;-66
2021/09/05 13:21:14;;;;;;;0.90;0.90;;;;;;;;;;5115712;28;20127;-66
2021/09/05 13:23:41;;;;;;;1.40;0.82;;;;;;;;;;5097923;28;20030;-66
2021/09/05 13:26:11;;;;;;;0.80;0.80;;;;;;;;;;5116071;28;20470;-66
2021/09/05 13:28:37;;;;;;;1.15;0.80;;;;;;;;;;5115963;28;20040;-66
2021/09/05 13:31:03;;;;;;;1.10;0.93;;;;;;;;;;5115985;28;20023;-66
2021/09/05 13:33:29;;;;;;;1.85;0.90;;;;;;;;;;5116113;28;20019;-66
2021/09/05 13:35:54;;;;;;;0.80;0.70;;;;;;;;;;5115900;28;20016;-66
2021/09/05 13:38:20;;;;;;;1.20;0.93;;;;;;;;;;5115801;28;20036;-66
2021/09/05 13:40:47;;;;;;;0.88;0.88;;;;;;;;;;5115814;28;20038;-66
2021/09/05 13:43:13;;;;;;;0.82;0.82;;;;;;;;;;5115742;28;20047;-66
2021/09/05 13:45:42;;;;;;;1.73;0.88;;;;;;;;;;5115546;28;20454;-66
2021/09/05 13:48:08;;;;;;;1.15;1.10;;;;;;;;;;5115555;28;20031;-66
2021/09/05 13:50:34;;;;;;;1.15;1.05;;;;;;;;;;5097485;28;20496;-66
2021/09/05 13:53:00;;;;;;;0.90;0.90;;;;;;;;;;5115628;28;20072;-66
2021/09/05 13:55:26;;;;;;;1.30;1.20;;;;;;;;;;5115605;28;20407;-66
2021/09/05 13:57:51;;;;;;;1.58;0.80;;;;;;;;;;5115530;28;20023;-66
2021/09/05 14:00:20;;;;;;;0.90;0.90;;;;;;;;;;5115468;28;20023;-66
2021/09/05 14:02:47;;;;;;;0.93;0.88;;;;;;;;;;5115513;28;20034;-66
2021/09/05 14:05:13;;;;;;;1.00;0.93;;;;;;;;;;5114579;28;20105;-66
2021/09/05 14:07:40;;;;;;;1.15;1.00;;;;;;;;;;5115401;28;20098;-66
2021/09/05 14:10:08;;;;;;;0.80;0.80;;;;;;;;;;5115348;28;20027;-65
2021/09/05 14:12:34;;;;;;;0.95;0.93;;;;;;;;;;5115166;28;20156;-66
2021/09/05 14:15:01;;;;;;;0.80;0.80;;;;;;;;;;5115047;28;20494;-66
2021/09/05 14:17:27;;;;;;;1.15;0.70;;;;;;;;;;5115016;28;20038;-66
2021/09/05 14:19:53;;;;;;;2.15;0.80;;;;;;;;;;5114965;28;20023;-66
2021/09/05 14:22:19;;;;;;;1.00;1.00;;;;;;;;;;5114951;28;20570;-66
2021/09/05 14:24:46;;;;;;;0.75;0.70;;;;;;;;;;5114972;28;20047;-66
2021/09/05 14:27:17;;;;;;;0.95;0.90;;;;;;;;;;5096493;28;20035;-66
2021/09/05 14:29:55;;;;;;;2.88;1.00;;;;;;;;;;5114830;28;20027;-66
2021/09/05 14:55:48;;;;;;;1.15;0.60;;;;;;;;;;5114327;28;20023;-66
2021/09/05 14:58:14;;;;;;;1.17;0.80;;;;;;;;;;5114242;28;20015;-66
2021/09/05 15:00:41;;;;;;;0.85;0.85;;;;;;;;;;5095933;28;20048;-66
2021/09/05 15:11:26;;;;;;;0.82;0.80;;;;;;;;;;5114163;28;20393;-66
2021/09/05 15:13:51;;;;;;;1.20;1.10;;;;;;;;;;5114052;28;20106;-66
2021/09/05 15:16:18;;;;;;;1.38;1.25;;;;;;;;;;5113853;28;20031;-66
2021/09/05 15:18:44;;;;;;;1.38;1.08;;;;;;;;;;5113971;28;20028;-66
2021/09/05 15:21:15;;;;;;;1.02;0.93;;;;;;;;;;5113209;28;20091;-66
2021/09/05 15:23:49;;;;;;;0.93;0.88;;;;;;;;;;5113866;28;20516;-65
2021/09/05 15:26:18;;;;;;;1.10;1.00;;;;;;;;;;5113855;28;20055;-64
2021/09/05 15:51:02;;;;;;;1.05;1.05;;;;;;;;;;5113697;28;20415;-66
2021/09/05 15:56:09;;;;;;;1.40;1.30;;;;;;;;;;5113709;28;20026;-66
2021/09/05 15:58:39;;;;;;;1.33;1.17;;;;;;;;;;5113489;28;20020;-66
2021/09/05 16:03:50;;;;;;;1.23;1.10;;;;;;;;;;5113555;28;20035;-66